»·PEaware :: N21056 KBFL-KCMA

N21056 :: KBFL-KCMA

FLIGHT INFORMATION

Flight Status: Arrived
Operator: Privately registered:
United States
More flights under this callsign
Pilot: Erik K. (18332)
Aircraft: PILATUS PC-12 EAGLE
(PC12)
More flights by this aircraft type
Origin: KBFL Meadows
United States
Destination: KCMA Camarillo
United States
More flights between these airports :: More routes between these airports
Route: +MEADO3 GMN V299 ZUWNI
File this flight plan on PilotEdge
Remarks:
Altitude:
(Current/Filed)
9,000ft
Speed:
(Current/Filed)
230kts
Departed: 01-Apr-19 11:12 AM
Arrived: 01-Apr-19 11:43 AM
Distance/Time
Traveled:
73nm/0:31
Distance/Time
To Go:
Arrived

Flight Plot

Page will automatically refresh every two minutes.

Flight plan parsing failed; only flown route is shown


Map Options




Map Legend


Flown Route
Filed Route
Departure Airport
Arrival Airport
Navaid (VOR, NDB)
Fix

Horizontal Profiles

Position Reports

Time Latitude Longitude Heading Altitude Ground
Speed
01-Apr-19 10:52 35.435695 -119.052044 180 504ft 0kts
01-Apr-19 10:53 35.435695 -119.052044 180 504ft 0kts
01-Apr-19 10:54 35.435695 -119.052044 180 504ft 0kts
01-Apr-19 10:55 35.435695 -119.052044 180 504ft 0kts
01-Apr-19 10:56 35.435695 -119.052044 180 504ft 0kts
01-Apr-19 10:57 35.435695 -119.052044 180 504ft 0kts
01-Apr-19 10:58 35.435695 -119.052044 180 504ft 0kts
01-Apr-19 10:59 35.435695 -119.052044 180 504ft 0kts
01-Apr-19 11:00 35.434958 -119.055345 316 492ft 18kts
01-Apr-19 11:01 35.439070 -119.060275 316 497ft 6kts
01-Apr-19 11:02 35.442827 -119.064842 316 502ft 27kts
01-Apr-19 11:03 35.447370 -119.070449 191 510ft 0kts
01-Apr-19 11:04 35.447370 -119.070449 191 510ft 0kts
01-Apr-19 11:05 35.447370 -119.070449 191 510ft 0kts
01-Apr-19 11:06 35.447370 -119.070449 191 510ft 0kts
01-Apr-19 11:07 35.447370 -119.070449 191 510ft 0kts
01-Apr-19 11:08 35.447370 -119.070449 191 510ft 0kts
01-Apr-19 11:09 35.446906 -119.070443 219 509ft 0kts
01-Apr-19 11:10 35.446033 -119.070922 127 508ft 14kts
01-Apr-19 11:11 35.431725 -119.051163 129 1744ft 122kts
01-Apr-19 11:12 35.400383 -119.013467 138 2859ft 207kts
01-Apr-19 11:13 35.356423 -118.958959 132 2957ft 229kts
01-Apr-19 11:14 35.312391 -118.900899 132 3225ft 229kts
01-Apr-19 11:15 35.268345 -118.844491 133 3411ft 228kts
01-Apr-19 11:16 35.251390 -118.777683 88 4666ft 185kts
01-Apr-19 11:17 35.218073 -118.747016 205 6494ft 174kts
01-Apr-19 11:18 35.173023 -118.771109 197 8310ft 176kts
01-Apr-19 11:19 35.125072 -118.786575 193 9992ft 183kts
01-Apr-19 11:20 35.066307 -118.801664 191 10067ft 234kts
01-Apr-19 11:21 35.000085 -118.816971 191 10077ft 245kts
01-Apr-19 11:22 34.930447 -118.832819 191 10074ft 257kts
01-Apr-19 11:23 34.862766 -118.848023 190 10067ft 259kts
01-Apr-19 11:24 34.790568 -118.860223 179 10020ft 261kts
01-Apr-19 11:25 34.717456 -118.865136 183 10009ft 260kts
01-Apr-19 11:26 34.644477 -118.869185 182 9966ft 260kts
01-Apr-19 11:27 34.575005 -118.872811 182 9920ft 230kts
01-Apr-19 11:28 34.513706 -118.875913 182 10008ft 213kts
01-Apr-19 11:29 34.454250 -118.878940 182 10000ft 211kts
01-Apr-19 11:30 34.393379 -118.882083 182 9277ft 231kts
01-Apr-19 11:31 34.338138 -118.862267 122 7620ft 219kts
01-Apr-19 11:32 34.305727 -118.800482 122 6005ft 212kts
01-Apr-19 11:33 34.273539 -118.741109 129 4429ft 207kts
01-Apr-19 11:34 34.242880 -118.765641 268 4005ft 161kts
01-Apr-19 11:35 34.240580 -118.816177 265 3997ft 139kts
01-Apr-19 11:36 34.235991 -118.870730 264 3648ft 165kts
01-Apr-19 11:37 34.231536 -118.915924 262 3380ft 129kts
01-Apr-19 11:38 34.226853 -118.960673 262 2853ft 138kts
01-Apr-19 11:39 34.220858 -119.002778 267 1631ft 108kts
01-Apr-19 11:40 34.216352 -119.036174 254 969ft 99kts
01-Apr-19 11:41 34.213428 -119.068480 271 400ft 96kts
01-Apr-19 11:42 34.213738 -119.094019 269 75ft 35kts
01-Apr-19 11:43 34.212528 -119.095695 180 75ft 9kts
01-Apr-19 11:44 34.210639 -119.094176 85 75ft 0kts
01-Apr-19 11:45 34.210639 -119.094176 85 75ft 0kts
01-Apr-19 11:46 34.210639 -119.094176 85 75ft 0kts
01-Apr-19 11:47 34.210639 -119.094176 85 75ft 0kts

Navigation Log

Ident Type
Flight plan parsing failed, navigation log unavailable